createdAt,value
2023-02-16T00:01:22.509Z,1.63
2023-02-16T00:03:50.995Z,0.90
2023-02-16T00:06:19.449Z,1.70
2023-02-16T00:08:49.292Z,0.50
2023-02-16T00:11:39.543Z,0.40
2023-02-16T00:14:11.285Z,1.17
2023-02-16T00:16:39.878Z,0.63
2023-02-16T00:19:21.439Z,0.97
2023-02-16T00:21:50.404Z,2.10
2023-02-16T00:24:18.665Z,1.73
2023-02-16T00:26:48.397Z,1.07
2023-02-16T00:29:21.291Z,0.73
2023-02-16T00:31:50.003Z,0.70
2023-02-16T00:34:28.074Z,0.90
2023-02-16T00:36:56.722Z,0.50
2023-02-16T00:39:26.200Z,1.23
2023-02-16T00:41:56.496Z,0.50
2023-02-16T00:44:31.891Z,0.67
2023-02-16T00:47:03.414Z,0.87
2023-02-16T00:49:31.414Z,1.90
2023-02-16T00:51:59.697Z,1.27
2023-02-16T00:54:27.628Z,0.67
2023-02-16T00:56:58.032Z,0.40
2023-02-16T00:59:25.937Z,0.50
2023-02-16T01:01:53.969Z,0.87
2023-02-16T01:04:24.358Z,0.40
2023-02-16T01:07:09.832Z,0.73
2023-02-16T01:09:55.449Z,0.97
2023-02-16T01:12:24.740Z,0.87
2023-02-16T01:14:55.085Z,1.17
2023-02-16T01:17:23.909Z,1.17
2023-02-16T01:19:51.866Z,0.80
2023-02-16T01:22:19.750Z,0.70
2023-02-16T01:24:47.625Z,0.40
2023-02-16T01:27:15.690Z,0.40
2023-02-16T01:29:44.924Z,1.30
2023-02-16T01:32:14.308Z,0.67
2023-02-16T01:34:42.559Z,0.40
2023-02-16T01:37:16.298Z,0.50
2023-02-16T01:39:44.289Z,0.43
2023-02-16T01:42:25.247Z,0.90
2023-02-16T01:45:00.049Z,1.10
2023-02-16T01:47:37.802Z,0.63
2023-02-16T01:50:15.799Z,0.90
2023-02-16T01:52:46.315Z,0.53
2023-02-16T01:55:21.405Z,1.20
2023-02-16T01:57:53.095Z,0.40
2023-02-16T02:00:30.328Z,1.20
2023-02-16T02:03:21.478Z,0.40
2023-02-16T02:05:49.817Z,0.70
2023-02-16T02:08:27.288Z,0.90
2023-02-16T02:11:10.700Z,1.73
2023-02-16T02:13:45.440Z,1.37
2023-02-16T02:16:19.192Z,0.70
2023-02-16T02:18:47.118Z,1.27
2023-02-16T02:21:58.038Z,0.43
2023-02-16T02:25:02.043Z,0.87
2023-02-16T02:27:33.893Z,0.77
2023-02-16T02:30:32.998Z,1.83
2023-02-16T02:33:22.044Z,0.80
2023-02-16T02:35:55.072Z,1.03
2023-02-16T02:38:28.923Z,1.07
2023-02-16T02:41:09.440Z,0.47
2023-02-16T02:43:43.188Z,0.40
2023-02-16T02:46:16.308Z,0.80
2023-02-16T02:48:44.216Z,0.50
2023-02-16T02:51:33.865Z,0.80
2023-02-16T02:54:22.121Z,0.70
2023-02-16T02:57:11.705Z,0.60
2023-02-16T03:00:01.073Z,0.43
2023-02-16T03:02:31.498Z,0.50
2023-02-16T03:05:01.101Z,1.43
2023-02-16T03:07:43.612Z,0.67
2023-02-16T03:10:25.615Z,0.40
2023-02-16T03:12:53.785Z,1.33
2023-02-16T03:15:25.335Z,0.90
2023-02-16T03:18:13.673Z,0.63
2023-02-16T03:21:00.227Z,0.40
2023-02-16T03:23:46.851Z,0.90
2023-02-16T03:26:33.307Z,0.80
2023-02-16T03:29:19.202Z,0.40
2023-02-16T03:31:49.039Z,0.60
2023-02-16T03:34:19.002Z,0.60
2023-02-16T03:36:49.672Z,0.50
2023-02-16T03:39:18.208Z,1.77
2023-02-16T03:41:49.915Z,0.60
2023-02-16T03:44:17.871Z,0.40
2023-02-16T03:46:46.044Z,0.77
2023-02-16T03:49:15.275Z,0.60
2023-02-16T03:51:43.139Z,0.80
2023-02-16T03:54:11.080Z,0.30
2023-02-16T03:56:38.962Z,0.40
2023-02-16T03:59:06.904Z,0.57
2023-02-16T04:01:34.753Z,0.60
2023-02-16T04:04:02.677Z,0.80
2023-02-16T04:06:31.926Z,0.97
2023-02-16T04:08:59.780Z,1.10
2023-02-16T04:11:45.099Z,0.90
2023-02-16T04:14:13.112Z,1.27
2023-02-16T04:16:41.068Z,0.40
2023-02-16T04:19:08.947Z,1.10
2023-02-16T04:21:38.193Z,0.53
2023-02-16T04:24:06.833Z,0.30
2023-02-16T04:26:34.713Z,0.63
2023-02-16T04:29:02.572Z,1.07
2023-02-16T04:31:30.557Z,0.40
2023-02-16T04:33:58.526Z,0.50
2023-02-16T04:36:26.487Z,1.40
2023-02-16T04:38:55.807Z,0.90
2023-02-16T04:41:23.680Z,0.60
2023-02-16T04:43:51.512Z,0.70
2023-02-16T04:46:20.234Z,1.17
2023-02-16T04:48:48.163Z,0.97
2023-02-16T04:51:16.351Z,0.70
2023-02-16T04:53:44.398Z,0.70
2023-02-16T04:56:14.493Z,0.70
2023-02-16T04:58:42.722Z,0.40
2023-02-16T05:01:10.781Z,0.67
2023-02-16T05:03:38.627Z,0.50
2023-02-16T05:06:06.772Z,0.40
2023-02-16T05:08:34.609Z,1.30
2023-02-16T05:11:19.813Z,1.27
2023-02-16T05:14:06.656Z,0.40
2023-02-16T05:16:34.516Z,0.97
2023-02-16T05:19:02.389Z,0.40
2023-02-16T05:21:33.284Z,0.80
2023-02-16T05:24:02.575Z,0.93
2023-02-16T05:26:30.860Z,1.33
2023-02-16T05:29:00.489Z,1.63
2023-02-16T05:31:29.517Z,0.70
2023-02-16T05:33:57.765Z,1.67
2023-02-16T05:36:25.801Z,1.07
2023-02-16T05:38:53.758Z,0.97
2023-02-16T05:41:24.566Z,1.57
2023-02-16T05:43:53.835Z,0.90
2023-02-16T05:46:24.202Z,0.70
2023-02-16T05:48:52.631Z,0.40
2023-02-16T05:51:21.224Z,1.23
2023-02-16T05:53:49.418Z,1.57
2023-02-16T05:56:18.027Z,0.83
2023-02-16T05:58:45.970Z,0.60
2023-02-16T06:01:14.196Z,0.63
2023-02-16T06:03:43.680Z,1.63
2023-02-16T06:06:11.713Z,0.50
2023-02-16T06:08:40.537Z,1.00
2023-02-16T06:11:28.540Z,0.70
2023-02-16T06:13:58.154Z,1.53
2023-02-16T06:16:27.230Z,1.37
2023-02-16T06:18:56.818Z,0.93
2023-02-16T06:21:25.633Z,0.67
2023-02-16T06:23:53.873Z,1.73
2023-02-16T06:26:22.189Z,1.73
2023-02-16T06:28:50.060Z,1.53
2023-02-16T06:31:18.396Z,1.50
2023-02-16T06:33:46.336Z,1.17
2023-02-16T06:36:16.516Z,0.87
2023-02-16T06:38:44.452Z,0.60
2023-02-16T06:41:12.829Z,0.43
2023-02-16T06:43:40.700Z,0.67
2023-02-16T06:46:08.605Z,1.80
2023-02-16T06:48:36.839Z,1.90
2023-02-16T06:51:05.318Z,0.53
2023-02-16T06:53:34.759Z,0.60
2023-02-16T06:56:02.617Z,0.67
2023-02-16T06:58:30.506Z,0.70
2023-02-16T07:00:58.447Z,0.80
2023-02-16T07:03:26.502Z,0.60
2023-02-16T07:05:54.415Z,0.57
2023-02-16T07:08:23.309Z,0.53
2023-02-16T07:10:54.764Z,1.50
2023-02-16T07:13:22.650Z,0.60
2023-02-16T07:15:50.617Z,0.93
2023-02-16T07:18:18.600Z,0.30
2023-02-16T07:20:46.477Z,1.30
2023-02-16T07:23:14.345Z,1.00
2023-02-16T07:25:42.193Z,0.60
2023-02-16T07:28:11.454Z,0.50
2023-02-16T07:30:39.532Z,0.77
2023-02-16T07:33:07.629Z,1.60
2023-02-16T07:35:35.897Z,1.20
2023-02-16T07:38:04.406Z,1.23
2023-02-16T07:40:33.265Z,1.43
2023-02-16T07:43:01.799Z,0.40
2023-02-16T07:45:32.663Z,1.17
2023-02-16T07:48:00.896Z,1.77
2023-02-16T07:50:29.032Z,0.93
2023-02-16T07:52:56.964Z,0.50
2023-02-16T07:55:24.898Z,0.70
2023-02-16T07:57:56.206Z,0.50
2023-02-16T08:00:24.473Z,0.83
2023-02-16T08:02:54.149Z,0.50
2023-02-16T08:05:22.210Z,0.50
2023-02-16T08:07:50.267Z,0.40
2023-02-16T08:10:18.541Z,0.50
2023-02-16T08:12:46.412Z,0.60
2023-02-16T08:15:14.313Z,0.90
2023-02-16T08:17:42.220Z,0.47
2023-02-16T08:20:12.367Z,0.90
2023-02-16T08:22:40.275Z,0.80
2023-02-16T08:25:08.643Z,1.70
2023-02-16T08:27:36.730Z,0.70
2023-02-16T08:30:05.840Z,1.00
2023-02-16T08:32:33.728Z,0.40
2023-02-16T08:35:01.650Z,0.50
2023-02-16T08:37:30.925Z,0.70
2023-02-16T08:40:00.754Z,1.83
2023-02-16T08:42:28.747Z,0.77
2023-02-16T08:44:56.640Z,0.47
2023-02-16T08:47:24.546Z,0.40
2023-02-16T08:49:52.406Z,0.73
2023-02-16T08:52:20.497Z,0.93
2023-02-16T08:54:49.909Z,1.43
2023-02-16T08:57:18.641Z,0.40
2023-02-16T09:00:06.513Z,0.70
2023-02-16T09:02:34.558Z,0.40
2023-02-16T09:05:02.580Z,1.00
2023-02-16T09:07:34.900Z,0.53
2023-02-16T09:10:04.638Z,0.50
2023-02-16T09:12:35.316Z,0.73
2023-02-16T09:15:03.505Z,0.70
2023-02-16T09:17:31.413Z,0.50
2023-02-16T09:19:59.292Z,0.63
2023-02-16T09:22:27.306Z,1.90
2023-02-16T09:24:55.186Z,0.70
2023-02-16T09:27:24.664Z,0.70
2023-02-16T09:29:52.919Z,1.13
2023-02-16T09:32:20.822Z,1.73
2023-02-16T09:34:50.118Z,0.50
2023-02-16T09:37:18.022Z,0.50
2023-02-16T09:39:47.120Z,0.80
2023-02-16T09:42:28.868Z,1.77
2023-02-16T09:45:04.121Z,1.30
2023-02-16T09:47:35.049Z,1.20
2023-02-16T09:50:06.358Z,2.17
2023-02-16T09:52:40.382Z,0.60
2023-02-16T09:55:12.225Z,1.87
2023-02-16T09:57:56.796Z,1.07
2023-02-16T10:00:36.202Z,1.07
2023-02-16T10:03:14.413Z,0.60
2023-02-16T10:05:48.256Z,0.77
2023-02-16T10:08:21.117Z,0.60
2023-02-16T10:10:54.446Z,1.30
2023-02-16T10:13:29.119Z,0.83
2023-02-16T10:15:58.823Z,1.03
2023-02-16T10:18:33.415Z,1.07
2023-02-16T10:21:05.548Z,1.30
2023-02-16T10:23:46.023Z,0.80
2023-02-16T10:26:21.741Z,1.40
2023-02-16T10:28:54.936Z,1.37
2023-02-16T10:31:31.227Z,1.30
2023-02-16T10:34:10.180Z,1.20
2023-02-16T10:36:51.861Z,1.33
2023-02-16T10:39:25.834Z,0.93
2023-02-16T10:42:01.878Z,1.47
2023-02-16T10:44:36.143Z,1.07
2023-02-16T10:47:06.566Z,1.67
2023-02-16T10:49:37.141Z,0.60
2023-02-16T10:52:06.457Z,0.60
2023-02-16T10:54:35.168Z,2.23
2023-02-16T10:57:05.826Z,3.03
2023-02-16T10:59:39.673Z,3.07
2023-02-16T11:02:19.882Z,3.00
2023-02-16T11:04:52.433Z,1.57
2023-02-16T11:07:22.546Z,2.03
2023-02-16T11:09:53.022Z,3.70
2023-02-16T11:12:28.369Z,1.60
2023-02-16T11:15:03.184Z,2.30
2023-02-16T11:17:32.471Z,1.57
2023-02-16T11:20:05.564Z,3.43
2023-02-16T11:22:36.202Z,4.53
2023-02-16T11:25:25.633Z,4.07
2023-02-16T11:27:57.112Z,3.40
2023-02-16T11:30:34.453Z,3.92
2023-02-16T11:33:04.602Z,3.33
2023-02-16T11:35:34.001Z,3.47
2023-02-16T11:38:02.040Z,1.50
2023-02-16T11:40:32.645Z,2.00
2023-02-16T11:43:02.375Z,1.83
2023-02-16T11:45:34.511Z,1.00
2023-02-16T11:48:05.800Z,0.90
2023-02-16T11:50:36.768Z,1.30
2023-02-16T11:53:16.405Z,1.33
2023-02-16T11:55:46.721Z,2.00
2023-02-16T11:58:18.394Z,1.63
2023-02-16T12:01:00.285Z,3.10
2023-02-16T12:03:47.590Z,1.80
2023-02-16T12:06:30.986Z,1.43
2023-02-16T12:09:17.109Z,1.73
2023-02-16T12:11:56.336Z,1.03
2023-02-16T12:14:43.530Z,1.80
2023-02-16T12:17:27.828Z,0.77
2023-02-16T12:20:03.824Z,1.90
2023-02-16T12:22:38.992Z,1.17
2023-02-16T12:25:26.612Z,1.23
2023-02-16T12:27:59.948Z,1.70
2023-02-16T12:30:37.878Z,1.63
2023-02-16T12:33:20.859Z,1.80
2023-02-16T12:36:02.844Z,1.70
2023-02-16T12:38:43.786Z,1.60
2023-02-16T12:41:21.035Z,1.00
2023-02-16T12:43:52.764Z,1.87
2023-02-16T12:46:28.208Z,2.07
2023-02-16T12:49:02.895Z,1.70
2023-02-16T12:51:37.426Z,1.43
2023-02-16T12:54:10.902Z,1.43
2023-02-16T12:56:43.249Z,1.33
2023-02-16T12:59:20.693Z,1.30
2023-02-16T13:01:52.604Z,3.90
2023-02-16T13:04:28.715Z,2.72
2023-02-16T13:07:03.004Z,2.70
2023-02-16T13:09:42.330Z,2.30
2023-02-16T13:12:20.318Z,1.57
2023-02-16T13:14:58.438Z,1.43
2023-02-16T13:17:32.763Z,1.47
2023-02-16T13:20:03.535Z,0.93
2023-02-16T13:22:50.219Z,1.30
2023-02-16T13:25:48.001Z,1.43
2023-02-16T13:28:34.316Z,0.83
2023-02-16T13:31:18.102Z,1.97
2023-02-16T13:34:23.945Z,1.67
2023-02-16T13:37:09.293Z,1.00
2023-02-16T13:40:01.297Z,1.33
2023-02-16T13:43:01.845Z,1.47
2023-02-16T13:45:32.367Z,1.50
2023-02-16T13:48:00.951Z,1.83
2023-02-16T13:50:32.220Z,0.50
2023-02-16T13:53:17.038Z,0.73
2023-02-16T13:55:45.297Z,1.03
2023-02-16T13:58:30.769Z,0.87
2023-02-16T14:00:59.084Z,1.60
2023-02-16T14:03:41.180Z,1.33
2023-02-16T14:06:33.369Z,1.03
2023-02-16T14:09:34.671Z,0.70
2023-02-16T14:12:05.401Z,1.23
2023-02-16T14:14:36.302Z,1.00
2023-02-16T14:17:18.309Z,0.90
2023-02-16T14:19:55.407Z,1.30
2023-02-16T14:22:28.115Z,1.20
2023-02-16T14:24:59.618Z,1.30
2023-02-16T14:27:45.092Z,0.70
2023-02-16T14:30:28.878Z,0.60
2023-02-16T14:33:02.426Z,1.70
2023-02-16T14:35:34.945Z,1.73
2023-02-16T14:38:04.649Z,1.10
2023-02-16T14:40:51.929Z,1.30
2023-02-16T14:43:33.274Z,1.10
2023-02-16T14:46:31.611Z,1.07
2023-02-16T14:49:31.144Z,1.43
2023-02-16T14:52:26.996Z,1.30
2023-02-16T14:55:23.414Z,1.27
2023-02-16T14:57:57.189Z,2.73
2023-02-16T15:00:31.664Z,1.07
2023-02-16T15:03:01.854Z,0.90
2023-02-16T15:05:32.965Z,1.50
2023-02-16T15:08:09.714Z,1.33
2023-02-16T15:10:40.597Z,0.83
2023-02-16T15:13:10.033Z,1.03
2023-02-16T15:15:47.047Z,1.27
2023-02-16T15:18:18.167Z,1.37
2023-02-16T15:20:48.373Z,1.13
2023-02-16T15:23:21.801Z,1.00
2023-02-16T15:25:59.661Z,1.07
2023-02-16T15:28:34.319Z,1.37
2023-02-16T15:31:05.617Z,0.57
2023-02-16T15:33:37.264Z,1.03
2023-02-16T15:36:10.674Z,0.90
2023-02-16T15:38:40.444Z,1.30
2023-02-16T15:41:11.018Z,1.50
2023-02-16T15:43:46.372Z,2.57
2023-02-16T15:46:23.892Z,1.73
2023-02-16T15:48:52.015Z,1.30
2023-02-16T15:51:25.637Z,1.30
2023-02-16T15:53:56.337Z,1.27
2023-02-16T15:56:29.589Z,1.30
2023-02-16T15:59:01.606Z,1.00
2023-02-16T16:01:37.337Z,0.83
2023-02-16T16:04:14.536Z,0.60
2023-02-16T16:06:42.540Z,0.50
2023-02-16T16:09:21.599Z,0.50
2023-02-16T16:11:51.807Z,0.80
2023-02-16T16:14:22.207Z,0.83
2023-02-16T16:16:51.403Z,0.67
2023-02-16T16:19:22.509Z,1.17
2023-02-16T16:21:54.332Z,0.60
2023-02-16T16:24:33.999Z,0.83
2023-02-16T16:27:05.449Z,1.10
2023-02-16T16:29:37.357Z,1.17
2023-02-16T16:32:07.293Z,0.90
2023-02-16T16:34:38.088Z,0.50
2023-02-16T16:37:08.381Z,1.13
2023-02-16T16:44:42.055Z,1.00
2023-02-16T16:47:21.445Z,1.17
2023-02-16T16:49:52.873Z,1.00
2023-02-16T16:52:35.211Z,1.00
2023-02-16T16:55:16.013Z,1.37
2023-02-16T16:57:44.049Z,1.30
2023-02-16T17:00:15.016Z,1.13
2023-02-16T17:02:43.248Z,1.17
2023-02-16T17:05:11.481Z,1.47
2023-02-16T17:07:39.687Z,0.80
2023-02-16T17:10:08.963Z,1.93
2023-02-16T17:12:37.097Z,3.03
2023-02-16T17:15:06.457Z,1.13
2023-02-16T17:17:35.826Z,1.10
2023-02-16T17:20:03.719Z,0.77
2023-02-16T17:22:31.581Z,0.80
2023-02-16T17:24:59.448Z,1.37
2023-02-16T17:27:27.291Z,2.40
2023-02-16T17:29:55.277Z,1.70
2023-02-16T17:32:24.280Z,1.30
2023-02-16T17:34:53.529Z,0.97
2023-02-16T17:37:21.455Z,2.50
2023-02-16T17:39:49.361Z,3.80
2023-02-16T17:42:17.263Z,2.63
2023-02-16T17:44:45.202Z,3.67
2023-02-16T17:47:16.313Z,4.03
2023-02-16T17:49:44.204Z,4.23
2023-02-16T17:52:14.324Z,1.67
2023-02-16T17:54:42.198Z,2.07
2023-02-16T17:57:11.429Z,2.93
2023-02-16T17:59:41.238Z,3.77
2023-02-16T18:02:10.858Z,6.27
2023-02-16T18:04:41.108Z,2.50
2023-02-16T18:07:11.358Z,1.77
2023-02-16T18:09:40.690Z,2.47
2023-02-16T18:12:09.080Z,2.47
2023-02-16T18:14:37.057Z,3.73
2023-02-16T18:17:06.693Z,8.67
2023-02-16T18:19:35.267Z,3.70
2023-02-16T18:22:03.739Z,6.03
2023-02-16T18:24:31.882Z,10.67
2023-02-16T18:27:01.237Z,8.47
2023-02-16T18:29:29.230Z,4.30
2023-02-16T18:31:57.235Z,4.97
2023-02-16T18:34:26.295Z,9.57
2023-02-16T18:36:54.296Z,8.30
2023-02-16T18:39:22.240Z,7.43
2023-02-16T18:41:50.129Z,8.57
2023-02-16T18:44:19.358Z,7.83
2023-02-16T18:46:47.240Z,5.47
2023-02-16T18:49:15.132Z,3.83
2023-02-16T18:51:43.054Z,5.40
2023-02-16T18:54:10.934Z,3.60
2023-02-16T18:56:40.574Z,4.30
2023-02-16T18:59:08.553Z,2.07
2023-02-16T19:01:37.818Z,3.63
2023-02-16T19:04:06.628Z,1.60
2023-02-16T19:06:34.932Z,1.47
2023-02-16T19:09:02.830Z,0.70
2023-02-16T19:11:32.731Z,1.13
2023-02-16T19:14:00.741Z,1.20
2023-02-16T19:16:29.128Z,1.33
2023-02-16T19:18:58.430Z,0.80
2023-02-16T19:21:26.348Z,0.97
2023-02-16T19:23:54.340Z,1.70
2023-02-16T19:26:22.363Z,1.30
2023-02-16T19:28:50.282Z,1.83
2023-02-16T19:31:20.810Z,0.83
2023-02-16T19:33:49.149Z,1.27
2023-02-16T19:36:19.405Z,1.13
2023-02-16T19:38:48.764Z,1.33
2023-02-16T19:41:18.854Z,2.03
2023-02-16T19:43:47.402Z,0.70
2023-02-16T19:46:16.039Z,1.63
2023-02-16T19:48:44.365Z,0.80
2023-02-16T19:51:12.604Z,1.03
2023-02-16T19:53:42.920Z,1.33
2023-02-16T19:56:13.358Z,0.83
2023-02-16T19:58:41.484Z,2.03
2023-02-16T20:01:10.503Z,1.23
2023-02-16T20:03:38.656Z,1.00
2023-02-16T20:06:14.465Z,1.07
2023-02-16T20:08:44.128Z,2.30
2023-02-16T20:11:12.272Z,1.50
2023-02-16T20:13:40.190Z,1.43
2023-02-16T20:16:10.411Z,1.67
2023-02-16T20:18:38.654Z,4.70
2023-02-16T20:21:09.346Z,1.93
2023-02-16T20:23:37.845Z,1.50
2023-02-16T20:26:08.857Z,2.87
2023-02-16T20:28:37.285Z,1.93
2023-02-16T20:31:10.962Z,2.10
2023-02-16T20:33:38.918Z,2.00
2023-02-16T20:36:07.349Z,1.37
2023-02-16T20:38:35.433Z,1.40
2023-02-16T20:41:03.921Z,1.43
2023-02-16T20:43:33.379Z,0.77
2023-02-16T20:46:03.117Z,1.57
2023-02-16T20:48:31.164Z,2.60
2023-02-16T20:51:01.963Z,1.47
2023-02-16T20:53:30.190Z,1.10
2023-02-16T20:56:03.340Z,1.20
2023-02-16T20:58:32.861Z,2.10
2023-02-16T21:01:00.800Z,1.00
2023-02-16T21:03:29.254Z,2.20
2023-02-16T21:05:57.320Z,1.67
2023-02-16T21:08:25.215Z,1.00
2023-02-16T21:10:53.122Z,1.00
2023-02-16T21:13:21.001Z,2.10
2023-02-16T21:15:50.323Z,1.27
2023-02-16T21:18:18.292Z,1.87
2023-02-16T21:20:46.400Z,1.40
2023-02-16T21:23:14.828Z,2.30
2023-02-16T21:25:42.705Z,1.47
2023-02-16T21:28:10.748Z,1.60
2023-02-16T21:30:38.700Z,1.10
2023-02-16T21:33:07.972Z,0.87
2023-02-16T21:35:36.137Z,1.17
2023-02-16T21:38:04.453Z,1.67
2023-02-16T21:40:49.669Z,2.13
2023-02-16T21:43:18.114Z,1.73
2023-02-16T21:45:46.063Z,1.03
2023-02-16T21:48:33.309Z,2.17
2023-02-16T21:51:03.342Z,0.83
2023-02-16T21:53:31.590Z,1.70
2023-02-16T21:56:16.781Z,1.17
2023-02-16T21:58:45.324Z,1.03
2023-02-16T22:01:13.676Z,2.80
2023-02-16T22:03:42.999Z,1.67
2023-02-16T22:06:11.751Z,1.33
2023-02-16T22:08:39.626Z,1.37
2023-02-16T22:11:08.827Z,2.17
2023-02-16T22:13:37.613Z,1.50
2023-02-16T22:16:11.180Z,1.13
2023-02-16T22:18:39.913Z,1.70
2023-02-16T22:21:09.627Z,2.03
2023-02-16T22:23:38.411Z,2.97
2023-02-16T22:26:08.257Z,2.77
2023-02-16T22:28:37.825Z,2.40
2023-02-16T22:31:09.932Z,0.93
2023-02-16T22:33:37.826Z,1.77
2023-02-16T22:36:13.884Z,1.57
2023-02-16T22:38:42.528Z,1.70
2023-02-16T22:41:11.887Z,1.67
2023-02-16T22:43:40.491Z,1.00
2023-02-16T22:46:09.695Z,0.60
2023-02-16T22:48:37.899Z,2.83
2023-02-16T22:51:08.050Z,1.77
2023-02-16T22:53:37.546Z,1.37
2023-02-16T22:56:07.007Z,1.13
2023-02-16T22:58:35.037Z,1.47
2023-02-16T23:01:03.041Z,1.60
2023-02-16T23:03:31.827Z,1.27
2023-02-16T23:05:59.685Z,1.27
2023-02-16T23:08:27.513Z,1.23
2023-02-16T23:11:02.628Z,0.80
2023-02-16T23:13:32.439Z,1.67
2023-02-16T23:16:05.602Z,1.17
2023-02-16T23:18:34.162Z,1.37
2023-02-16T23:21:06.632Z,1.10
2023-02-16T23:23:34.716Z,0.70
2023-02-16T23:26:06.239Z,1.60
2023-02-16T23:28:34.341Z,1.27
2023-02-16T23:31:02.237Z,2.30
2023-02-16T23:33:30.337Z,1.00
2023-02-16T23:35:58.323Z,1.90
2023-02-16T23:38:26.557Z,0.90
2023-02-16T23:40:58.806Z,3.00
2023-02-16T23:43:28.098Z,1.80
2023-02-16T23:45:56.457Z,1.97
2023-02-16T23:48:25.280Z,2.57
2023-02-16T23:50:54.089Z,1.33
2023-02-16T23:53:23.154Z,1.17
2023-02-16T23:55:58.636Z,2.00
2023-02-16T23:58:29.073Z,1.50
